createdAt,value
2019-04-30T00:01:17.056Z,100.00
2019-04-30T00:03:41.970Z,100.00
2019-04-30T00:06:10.544Z,100.00
2019-04-30T00:08:39.347Z,100.00
2019-04-30T00:11:10.958Z,100.00
2019-04-30T00:13:38.179Z,100.00
2019-04-30T00:16:06.690Z,100.00
2019-04-30T00:18:39.396Z,100.00
2019-04-30T00:21:05.652Z,100.00
2019-04-30T00:23:36.021Z,100.00
2019-04-30T00:26:09.500Z,100.00
2019-04-30T00:28:35.424Z,100.00
2019-04-30T00:31:05.495Z,100.00
2019-04-30T00:33:35.393Z,100.00
2019-04-30T00:36:05.017Z,100.00
2019-04-30T00:38:37.690Z,100.00
2019-04-30T00:41:06.943Z,100.00
2019-04-30T00:43:35.338Z,100.00
2019-04-30T00:46:05.109Z,100.00
2019-04-30T00:48:35.577Z,100.00
2019-04-30T00:51:07.570Z,100.00
2019-04-30T00:53:35.816Z,100.00
2019-04-30T00:56:05.678Z,100.00
2019-04-30T00:58:35.640Z,100.00
2019-04-30T01:01:16.471Z,100.00
2019-04-30T01:03:52.416Z,100.00
2019-04-30T01:06:26.765Z,100.00
2019-04-30T01:08:51.176Z,100.00
2019-04-30T01:11:19.793Z,100.00
2019-04-30T01:13:50.974Z,100.00
2019-04-30T01:16:19.550Z,100.00
2019-04-30T01:18:49.173Z,100.00
2019-04-30T01:21:18.507Z,100.00
2019-04-30T01:23:51.796Z,100.00
2019-04-30T01:26:18.740Z,100.00
2019-04-30T01:28:49.382Z,100.00
2019-04-30T01:31:18.772Z,100.00
2019-04-30T01:33:48.930Z,100.00
2019-04-30T01:36:19.186Z,100.00
2019-04-30T01:38:51.072Z,100.00
2019-04-30T01:41:20.244Z,100.00
2019-04-30T01:43:48.715Z,100.00
2019-04-30T01:46:18.924Z,100.00
2019-04-30T01:48:48.666Z,100.00
2019-04-30T01:51:21.671Z,100.00
2019-04-30T01:53:48.500Z,100.00
2019-04-30T01:56:28.946Z,100.00
2019-04-30T01:58:59.496Z,100.00
2019-04-30T02:01:31.205Z,100.00
2019-04-30T02:03:59.808Z,100.00
2019-04-30T02:06:29.421Z,100.00
2019-04-30T02:08:59.362Z,100.00
2019-04-30T02:11:28.881Z,100.00
2019-04-30T02:13:59.096Z,100.00
2019-04-30T02:16:28.971Z,100.00
2019-04-30T02:18:59.542Z,100.00
2019-04-30T02:21:29.902Z,100.00
2019-04-30T02:23:58.901Z,100.00
2019-04-30T02:26:28.649Z,100.00
2019-04-30T02:28:59.327Z,100.00
2019-04-30T02:31:30.717Z,100.00
2019-04-30T02:34:00.411Z,100.00
2019-04-30T02:36:36.378Z,100.00
2019-04-30T02:39:06.113Z,100.00
2019-04-30T02:41:36.025Z,100.00
2019-04-30T02:44:05.840Z,100.00
2019-04-30T02:46:34.955Z,100.00
2019-04-30T02:49:06.189Z,100.00
2019-04-30T02:51:39.755Z,100.00
2019-04-30T02:54:10.942Z,100.00
2019-04-30T02:56:40.897Z,100.00
2019-04-30T02:59:10.365Z,100.00
2019-04-30T03:01:40.212Z,100.00
2019-04-30T03:04:09.799Z,100.00
2019-04-30T03:06:40.191Z,100.00
2019-04-30T03:09:10.310Z,100.00
2019-04-30T03:11:40.566Z,100.00
2019-04-30T03:14:10.292Z,100.00
2019-04-30T03:16:59.891Z,100.00
2019-04-30T03:19:29.677Z,100.00
2019-04-30T03:22:02.657Z,100.00
2019-04-30T03:24:31.160Z,100.00
2019-04-30T03:26:59.647Z,100.00
2019-04-30T03:29:30.244Z,100.00
2019-04-30T03:32:02.505Z,100.00
2019-04-30T03:34:32.639Z,100.00
2019-04-30T03:37:01.737Z,100.00
2019-04-30T03:39:31.669Z,100.00
2019-04-30T03:41:59.707Z,100.00
2019-04-30T03:44:29.511Z,100.00
2019-04-30T03:46:59.279Z,100.00
2019-04-30T03:49:29.868Z,100.00
2019-04-30T03:51:59.813Z,100.00
2019-04-30T03:54:29.264Z,100.00
2019-04-30T03:57:00.728Z,100.00
2019-04-30T03:59:30.167Z,100.00
2019-04-30T04:02:03.574Z,100.00
2019-04-30T04:04:39.810Z,100.00
2019-04-30T04:07:26.535Z,100.00
2019-04-30T04:10:02.845Z,100.00
2019-04-30T04:12:31.317Z,100.00
2019-04-30T04:15:00.727Z,100.00
2019-04-30T04:17:31.482Z,100.00
2019-04-30T04:20:00.331Z,100.00
2019-04-30T04:22:30.590Z,100.00
2019-04-30T04:25:00.110Z,100.00
2019-04-30T04:27:30.112Z,100.00
2019-04-30T04:30:01.114Z,100.00
2019-04-30T04:32:30.707Z,100.00
2019-04-30T04:35:00.320Z,100.00
2019-04-30T04:37:30.127Z,100.00
2019-04-30T04:39:59.677Z,100.00
2019-04-30T04:42:32.490Z,99.23
2019-04-30T04:44:59.499Z,100.00
2019-04-30T04:47:30.942Z,99.07
2019-04-30T04:50:00.748Z,98.66
2019-04-30T04:52:31.385Z,97.35
2019-04-30T04:55:00.467Z,96.98
2019-04-30T04:57:30.465Z,96.93
2019-04-30T05:00:06.583Z,97.73
2019-04-30T05:02:36.786Z,98.57
2019-04-30T05:05:06.875Z,98.09
2019-04-30T05:07:35.373Z,97.29
2019-04-30T05:10:06.234Z,97.15
2019-04-30T05:12:37.300Z,97.78
2019-04-30T05:15:05.738Z,97.57
2019-04-30T05:17:34.233Z,98.19
2019-04-30T05:20:02.703Z,97.01
2019-04-30T05:22:31.199Z,95.96
2019-04-30T05:24:59.667Z,95.99
2019-04-30T05:27:28.159Z,96.20
2019-04-30T05:29:56.629Z,94.94
2019-04-30T05:32:25.219Z,94.89
2019-04-30T05:34:53.685Z,96.17
2019-04-30T05:37:22.473Z,97.65
2019-04-30T05:39:51.136Z,97.42
2019-04-30T05:42:19.620Z,96.62
2019-04-30T05:44:49.717Z,96.22
2019-04-30T05:47:19.559Z,95.40
2019-04-30T05:49:48.895Z,95.75
2019-04-30T05:52:19.944Z,94.13
2019-04-30T05:54:48.746Z,94.30
2019-04-30T05:57:19.584Z,95.28
2019-04-30T05:59:48.730Z,94.60
2019-04-30T06:02:19.356Z,95.12
2019-04-30T06:04:48.916Z,94.10
2019-04-30T06:07:18.891Z,94.24
2019-04-30T06:09:50.460Z,96.13
2019-04-30T06:12:20.599Z,95.19
2019-04-30T06:14:53.278Z,94.85
2019-04-30T06:17:32.034Z,94.28
2019-04-30T06:20:00.543Z,91.55
2019-04-30T06:22:29.484Z,94.86
2019-04-30T06:24:59.477Z,95.29
2019-04-30T06:27:29.181Z,93.36
2019-04-30T06:29:58.506Z,92.51
2019-04-30T06:32:27.080Z,91.79
2019-04-30T06:34:55.819Z,93.45
2019-04-30T06:37:24.666Z,94.23
2019-04-30T06:39:53.227Z,93.45
2019-04-30T06:42:21.731Z,93.40
2019-04-30T06:44:50.876Z,93.52
2019-04-30T06:47:32.121Z,93.31
2019-04-30T06:49:49.629Z,91.50
2019-04-30T06:52:22.742Z,90.30
2019-04-30T06:54:49.840Z,91.36
2019-04-30T06:57:19.870Z,89.72
2019-04-30T06:59:51.265Z,90.44
2019-04-30T07:02:19.668Z,86.92
2019-04-30T07:04:49.089Z,90.08
2019-04-30T07:07:21.403Z,87.43
2019-04-30T07:09:58.587Z,86.58
2019-04-30T07:12:36.695Z,85.82
2019-04-30T07:15:08.736Z,87.27
2019-04-30T07:17:40.562Z,88.55
2019-04-30T07:20:07.528Z,88.27
2019-04-30T07:22:40.792Z,84.92
2019-04-30T07:25:09.428Z,84.47
2019-04-30T07:27:39.933Z,86.19
2019-04-30T07:30:09.947Z,87.35
2019-04-30T07:32:38.723Z,87.60
2019-04-30T07:35:09.581Z,87.86
2019-04-30T07:37:39.180Z,86.00
2019-04-30T07:40:09.151Z,83.96
2019-04-30T07:42:44.441Z,86.32
2019-04-30T07:45:09.656Z,85.70
2019-04-30T07:47:39.543Z,83.43
2019-04-30T07:50:10.644Z,84.08
2019-04-30T07:52:57.705Z,83.20
2019-04-30T07:55:09.785Z,83.83
2019-04-30T07:57:40.406Z,82.87
2019-04-30T08:00:09.898Z,87.48
2019-04-30T08:02:43.540Z,81.80
2019-04-30T08:05:19.863Z,81.97
2019-04-30T08:07:49.016Z,84.13
2019-04-30T08:10:18.782Z,84.05
2019-04-30T08:12:49.985Z,85.54
2019-04-30T08:15:19.648Z,83.66
2019-04-30T08:18:02.343Z,83.27
2019-04-30T08:20:19.697Z,81.78
2019-04-30T08:22:49.378Z,81.77
2019-04-30T08:25:21.272Z,80.67
2019-04-30T08:27:49.271Z,81.55
2019-04-30T08:30:26.115Z,79.03
2019-04-30T08:32:49.949Z,80.73
2019-04-30T08:35:19.669Z,78.94
2019-04-30T08:37:49.746Z,76.76
2019-04-30T08:40:19.069Z,80.58
2019-04-30T08:42:49.574Z,77.72
2019-04-30T08:45:19.735Z,81.66
2019-04-30T08:47:49.283Z,83.60
2019-04-30T08:50:19.958Z,79.72
2019-04-30T08:52:49.907Z,78.53
2019-04-30T08:55:22.047Z,77.63
2019-04-30T08:57:49.981Z,77.22
2019-04-30T09:00:19.596Z,77.04
2019-04-30T09:02:49.191Z,77.00
2019-04-30T09:05:21.990Z,78.47
2019-04-30T09:07:50.475Z,79.73
2019-04-30T09:10:19.280Z,77.03
2019-04-30T09:12:49.547Z,77.33
2019-04-30T09:15:18.883Z,78.48
2019-04-30T09:17:58.901Z,81.75
2019-04-30T09:20:19.447Z,83.12
2019-04-30T09:22:49.615Z,81.83
2019-04-30T09:25:19.452Z,79.08
2019-04-30T09:27:48.776Z,75.83
2019-04-30T09:30:18.830Z,76.72
2019-04-30T09:32:47.601Z,77.01
2019-04-30T09:35:19.585Z,75.25
2019-04-30T09:37:49.617Z,72.83
2019-04-30T09:40:21.095Z,70.28
2019-04-30T09:42:48.832Z,70.52
2019-04-30T09:45:18.705Z,65.71
2019-04-30T09:47:47.355Z,69.94
2019-04-30T09:50:16.193Z,69.71
2019-04-30T09:52:45.024Z,61.84
2019-04-30T09:55:13.899Z,66.86
2019-04-30T09:57:42.402Z,64.25
2019-04-30T10:00:11.819Z,60.60
2019-04-30T10:02:40.388Z,59.96
2019-04-30T10:05:10.617Z,57.45
2019-04-30T10:07:39.885Z,61.66
2019-04-30T10:10:11.404Z,54.62
2019-04-30T10:12:40.135Z,54.28
2019-04-30T10:15:11.089Z,55.97
2019-04-30T10:17:41.233Z,55.39
2019-04-30T10:20:12.141Z,52.92
2019-04-30T10:22:40.711Z,51.53
2019-04-30T10:25:10.124Z,54.81
2019-04-30T10:27:39.095Z,59.62
2019-04-30T10:30:09.927Z,62.03
2019-04-30T10:32:38.422Z,65.30
2019-04-30T10:35:07.841Z,63.40
2019-04-30T10:37:36.412Z,69.91
2019-04-30T10:40:07.662Z,67.04
2019-04-30T10:42:36.252Z,68.96
2019-04-30T10:45:07.247Z,67.02
2019-04-30T10:47:35.760Z,67.81
2019-04-30T10:50:06.799Z,65.90
2019-04-30T10:52:35.307Z,69.71
2019-04-30T10:55:04.732Z,62.34
2019-04-30T10:57:33.236Z,61.88
2019-04-30T11:00:01.717Z,60.58
2019-04-30T11:02:31.237Z,55.97
2019-04-30T11:04:59.778Z,57.94
2019-04-30T11:07:28.802Z,53.65
2019-04-30T11:09:58.859Z,53.02
2019-04-30T11:12:29.214Z,50.57
2019-04-30T11:14:57.885Z,49.73
2019-04-30T11:17:26.665Z,46.37
2019-04-30T11:19:55.647Z,47.24
2019-04-30T11:22:24.382Z,46.40
2019-04-30T11:25:01.572Z,46.00
2019-04-30T11:27:23.525Z,52.63
2019-04-30T11:29:52.645Z,52.25
2019-04-30T11:32:23.276Z,53.42
2019-04-30T11:34:51.896Z,54.17
2019-04-30T11:37:20.625Z,59.45
2019-04-30T11:39:49.303Z,57.39
2019-04-30T11:42:17.950Z,54.77
2019-04-30T11:44:48.380Z,52.86
2019-04-30T11:47:22.843Z,48.14
2019-04-30T11:49:51.454Z,47.26
2019-04-30T11:52:20.063Z,47.89
2019-04-30T11:54:52.069Z,45.44
2019-04-30T11:57:18.918Z,43.94
2019-04-30T11:59:47.493Z,46.74
2019-04-30T12:02:33.729Z,46.23
2019-04-30T12:05:05.005Z,48.52
2019-04-30T12:07:50.646Z,43.35
2019-04-30T12:10:26.709Z,43.50
2019-04-30T12:12:55.187Z,42.43
2019-04-30T12:15:23.689Z,43.63
2019-04-30T12:17:52.261Z,39.61
2019-04-30T12:20:21.092Z,40.31
2019-04-30T12:22:49.567Z,38.04
2019-04-30T12:25:18.730Z,35.83
2019-04-30T12:27:48.802Z,38.44
2019-04-30T12:30:20.543Z,36.93
2019-04-30T12:32:49.344Z,35.75
2019-04-30T12:35:18.124Z,36.00
2019-04-30T12:37:46.613Z,36.94
2019-04-30T12:40:26.741Z,36.12
2019-04-30T12:42:45.448Z,32.69
2019-04-30T12:45:14.012Z,35.25
2019-04-30T12:47:44.126Z,36.85
2019-04-30T12:50:30.106Z,34.42
2019-04-30T12:53:16.461Z,37.96
2019-04-30T12:55:46.596Z,38.30
2019-04-30T12:58:15.103Z,34.34
2019-04-30T13:00:43.679Z,33.07
2019-04-30T13:03:12.252Z,33.67
2019-04-30T13:05:40.861Z,29.73
2019-04-30T13:08:10.172Z,33.25
2019-04-30T13:10:39.561Z,33.10
2019-04-30T13:13:08.854Z,35.96
2019-04-30T13:15:37.749Z,35.95
2019-04-30T13:18:06.220Z,37.35
2019-04-30T13:20:34.865Z,32.92
2019-04-30T13:23:03.388Z,30.71
2019-04-30T13:25:35.530Z,29.76
2019-04-30T13:28:07.540Z,29.46
2019-04-30T13:30:36.795Z,31.72
2019-04-30T13:33:06.991Z,36.31
2019-04-30T13:35:35.769Z,36.98
2019-04-30T13:38:21.281Z,32.66
2019-04-30T13:40:51.442Z,33.13
2019-04-30T13:43:21.563Z,34.58
2019-04-30T13:45:51.876Z,36.55
2019-04-30T13:48:20.291Z,31.95
2019-04-30T13:50:48.888Z,33.91
2019-04-30T13:53:18.628Z,33.50
2019-04-30T13:55:48.912Z,31.95
2019-04-30T13:58:17.570Z,31.31
2019-04-30T14:00:46.094Z,30.60
2019-04-30T14:03:32.011Z,28.85
2019-04-30T14:06:00.674Z,30.30
2019-04-30T14:08:30.796Z,32.70
2019-04-30T14:10:59.335Z,28.31
2019-04-30T14:13:27.966Z,27.12
2019-04-30T14:15:56.534Z,28.24
2019-04-30T14:18:30.784Z,27.49
2019-04-30T14:20:55.275Z,27.69
2019-04-30T14:23:23.745Z,30.35
2019-04-30T14:25:56.754Z,32.54
2019-04-30T14:28:22.529Z,33.26
2019-04-30T14:30:51.010Z,31.37
2019-04-30T14:33:25.878Z,33.43
2019-04-30T14:35:49.872Z,31.13
2019-04-30T14:38:19.052Z,31.65
2019-04-30T14:40:49.995Z,28.73
2019-04-30T14:43:22.551Z,28.16
2019-04-30T14:46:10.286Z,32.55
2019-04-30T14:48:44.479Z,30.88
2019-04-30T14:51:13.738Z,33.12
2019-04-30T14:53:49.320Z,32.64
2019-04-30T14:56:31.506Z,36.51
2019-04-30T14:59:04.226Z,38.90
2019-04-30T15:01:43.446Z,40.76
2019-04-30T15:04:11.998Z,43.23
2019-04-30T15:06:40.503Z,43.13
2019-04-30T15:09:10.323Z,40.44
2019-04-30T15:11:38.935Z,37.96
2019-04-30T15:14:07.412Z,41.92
2019-04-30T15:16:35.895Z,43.21
2019-04-30T15:19:04.489Z,39.37
2019-04-30T15:21:32.973Z,40.71
2019-04-30T15:24:03.106Z,42.07
2019-04-30T15:26:31.654Z,43.76
2019-04-30T15:29:00.285Z,43.45
2019-04-30T15:31:29.708Z,42.93
2019-04-30T15:34:03.314Z,36.77
2019-04-30T15:36:31.732Z,34.63
2019-04-30T15:39:01.883Z,33.91
2019-04-30T15:41:31.400Z,34.69
2019-04-30T15:44:00.177Z,38.93
2019-04-30T15:46:28.721Z,40.59
2019-04-30T15:48:57.225Z,43.32
2019-04-30T15:51:26.043Z,45.03
2019-04-30T15:53:54.550Z,46.15
2019-04-30T15:56:34.400Z,47.40
2019-04-30T15:59:10.951Z,46.10
2019-04-30T16:01:41.079Z,45.75
2019-04-30T16:04:11.213Z,40.43
2019-04-30T16:06:39.758Z,39.89
2019-04-30T16:09:20.258Z,41.70
2019-04-30T16:11:50.151Z,45.59
2019-04-30T16:14:23.261Z,46.98
2019-04-30T16:16:55.861Z,46.21
2019-04-30T16:19:24.362Z,48.87
2019-04-30T16:21:52.837Z,43.15
2019-04-30T16:24:21.347Z,39.63
2019-04-30T16:26:52.629Z,40.80
2019-04-30T16:29:20.975Z,40.67
2019-04-30T16:31:49.889Z,42.47
2019-04-30T16:34:18.413Z,42.50
2019-04-30T16:36:49.025Z,43.24
2019-04-30T16:39:18.671Z,43.48
2019-04-30T16:41:49.552Z,46.41
2019-04-30T16:44:19.158Z,47.56
2019-04-30T16:46:49.398Z,44.11
2019-04-30T16:49:18.052Z,46.42
2019-04-30T16:51:46.567Z,47.41
2019-04-30T16:54:15.080Z,46.40
2019-04-30T16:56:43.617Z,45.90
2019-04-30T16:59:22.525Z,46.62
2019-04-30T17:01:57.750Z,47.13
2019-04-30T17:04:25.924Z,48.06
2019-04-30T17:06:56.106Z,49.19
2019-04-30T17:09:29.209Z,48.30
2019-04-30T17:11:59.532Z,50.28
2019-04-30T17:14:30.693Z,48.32
2019-04-30T17:16:59.747Z,50.90
2019-04-30T17:19:29.217Z,47.72
2019-04-30T17:21:57.763Z,46.80
2019-04-30T17:24:26.271Z,47.88
2019-04-30T17:26:54.743Z,48.07
2019-04-30T17:29:23.246Z,48.04
2019-04-30T17:31:51.721Z,48.09
2019-04-30T17:34:20.227Z,46.76
2019-04-30T17:36:49.614Z,47.81
2019-04-30T17:39:20.129Z,46.75
2019-04-30T17:41:49.351Z,49.08
2019-04-30T17:44:18.664Z,49.60
2019-04-30T17:46:47.318Z,50.51
2019-04-30T17:49:15.788Z,53.02
2019-04-30T17:51:44.288Z,54.38
2019-04-30T17:54:14.409Z,56.38
2019-04-30T17:56:45.116Z,55.32
2019-04-30T17:59:13.921Z,55.57
2019-04-30T18:01:44.210Z,57.31
2019-04-30T18:04:12.751Z,58.08
2019-04-30T18:06:41.253Z,59.32
2019-04-30T18:09:11.078Z,59.72
2019-04-30T18:11:39.724Z,61.47
2019-04-30T18:14:08.817Z,62.40
2019-04-30T18:16:38.659Z,62.35
2019-04-30T18:19:09.022Z,64.60
2019-04-30T18:21:48.665Z,64.00
2019-04-30T18:24:19.515Z,64.08
2019-04-30T18:26:58.690Z,66.08
2019-04-30T18:29:27.163Z,65.89
2019-04-30T18:31:55.667Z,68.06
2019-04-30T18:34:24.147Z,68.39
2019-04-30T18:36:52.646Z,68.68
2019-04-30T18:39:21.120Z,69.69
2019-04-30T18:41:49.689Z,68.44
2019-04-30T18:44:19.551Z,69.79
2019-04-30T18:46:49.109Z,68.23
2019-04-30T18:49:18.744Z,69.29
2019-04-30T18:51:49.239Z,70.61
2019-04-30T18:54:18.381Z,71.55
2019-04-30T18:56:48.937Z,71.22
2019-04-30T18:59:19.513Z,71.22
2019-04-30T19:01:47.877Z,70.68
2019-04-30T19:04:16.359Z,70.19
2019-04-30T19:06:44.930Z,70.53
2019-04-30T19:09:24.126Z,69.74
2019-04-30T19:12:11.226Z,70.56
2019-04-30T19:14:49.145Z,71.27
2019-04-30T19:17:29.554Z,70.75
2019-04-30T19:20:14.850Z,68.63
2019-04-30T19:22:43.457Z,68.22
2019-04-30T19:25:12.980Z,68.05
2019-04-30T19:27:41.748Z,66.86
2019-04-30T19:30:10.572Z,65.11
2019-04-30T19:32:39.199Z,66.01
2019-04-30T19:35:09.069Z,67.49
2019-04-30T19:37:38.613Z,68.55
2019-04-30T19:40:08.968Z,66.49
2019-04-30T19:42:39.432Z,65.66
2019-04-30T19:45:10.275Z,64.64
2019-04-30T19:47:39.066Z,65.10
2019-04-30T19:50:09.399Z,62.09
2019-04-30T19:52:38.088Z,64.33
2019-04-30T19:55:07.004Z,63.90
2019-04-30T19:57:35.504Z,63.54
2019-04-30T20:00:04.892Z,65.50
2019-04-30T20:02:33.398Z,64.69
2019-04-30T20:05:01.899Z,66.39
2019-04-30T20:07:30.382Z,66.17
2019-04-30T20:10:03.637Z,66.42
2019-04-30T20:12:29.169Z,69.17
2019-04-30T20:14:57.638Z,70.61
2019-04-30T20:17:26.138Z,71.43
2019-04-30T20:19:54.613Z,71.46
2019-04-30T20:22:23.343Z,70.86
2019-04-30T20:24:51.970Z,70.88
2019-04-30T20:27:20.476Z,71.10
2019-04-30T20:29:51.621Z,72.52
2019-04-30T20:32:27.499Z,70.36
2019-04-30T20:34:49.445Z,73.25
2019-04-30T20:37:19.652Z,71.79
2019-04-30T20:39:49.837Z,75.07
2019-04-30T20:42:18.346Z,76.29
2019-04-30T20:44:48.879Z,75.40
2019-04-30T20:47:18.426Z,73.57
2019-04-30T20:49:49.002Z,74.90
2019-04-30T20:52:20.402Z,74.83
2019-04-30T20:54:48.853Z,74.83
2019-04-30T20:57:19.835Z,75.56
2019-04-30T20:59:48.756Z,75.66
2019-04-30T21:02:18.540Z,73.23
2019-04-30T21:04:47.630Z,73.26
2019-04-30T21:07:16.104Z,73.16
2019-04-30T21:09:44.607Z,74.35
2019-04-30T21:12:13.082Z,75.77
2019-04-30T21:14:41.584Z,76.00
2019-04-30T21:17:10.061Z,78.64
2019-04-30T21:19:38.568Z,80.96
2019-04-30T21:22:07.146Z,80.68
2019-04-30T21:24:35.650Z,82.26
2019-04-30T21:27:04.127Z,82.62
2019-04-30T21:29:32.628Z,82.86
2019-04-30T21:32:08.703Z,84.37
2019-04-30T21:34:48.259Z,83.89
2019-04-30T21:37:16.731Z,84.96
2019-04-30T21:39:45.294Z,83.68
2019-04-30T21:42:13.766Z,82.08
2019-04-30T21:44:42.265Z,80.78
2019-04-30T21:47:10.744Z,81.72
2019-04-30T21:49:39.243Z,82.43
2019-04-30T21:52:07.721Z,84.90
2019-04-30T21:54:36.218Z,83.66
2019-04-30T21:57:04.696Z,85.49
2019-04-30T21:59:33.202Z,85.29
2019-04-30T22:02:01.916Z,86.09
2019-04-30T22:04:30.414Z,85.62
2019-04-30T22:06:59.512Z,85.38
2019-04-30T22:09:28.232Z,84.05
2019-04-30T22:11:56.706Z,81.50
2019-04-30T22:14:25.207Z,83.15
2019-04-30T22:16:53.684Z,85.63
2019-04-30T22:19:22.181Z,86.77
2019-04-30T22:21:50.655Z,87.29
2019-04-30T22:24:19.158Z,87.81
2019-04-30T22:26:47.635Z,88.48
2019-04-30T22:29:16.138Z,89.12
2019-04-30T22:31:44.618Z,89.11
2019-04-30T22:34:13.100Z,87.79
2019-04-30T22:36:43.247Z,86.35
2019-04-30T22:39:19.930Z,85.63
2019-04-30T22:41:48.701Z,86.44
2019-04-30T22:44:17.186Z,86.95
2019-04-30T22:46:45.693Z,89.11
2019-04-30T22:49:14.172Z,88.69
2019-04-30T22:51:42.674Z,89.22
2019-04-30T22:54:11.210Z,90.50
2019-04-30T22:56:39.710Z,91.43
2019-04-30T22:59:08.184Z,91.99
2019-04-30T23:01:38.327Z,92.35
2019-04-30T23:04:11.123Z,92.58
2019-04-30T23:06:39.692Z,92.45
2019-04-30T23:09:11.552Z,92.11
2019-04-30T23:11:40.124Z,91.86
2019-04-30T23:14:08.594Z,92.88
2019-04-30T23:16:37.165Z,92.83
2019-04-30T23:19:05.650Z,92.33
2019-04-30T23:21:34.149Z,93.11
2019-04-30T23:24:02.634Z,93.26
2019-04-30T23:26:31.142Z,92.81
2019-04-30T23:28:59.622Z,93.65
2019-04-30T23:31:28.131Z,93.48
2019-04-30T23:33:56.608Z,93.11
2019-04-30T23:36:25.117Z,91.29
2019-04-30T23:38:53.592Z,90.03
2019-04-30T23:41:22.570Z,90.42
2019-04-30T23:43:51.054Z,92.07
2019-04-30T23:46:19.554Z,93.39
2019-04-30T23:48:48.037Z,94.51
2019-04-30T23:51:16.544Z,92.44
2019-04-30T23:53:45.032Z,90.60
2019-04-30T23:56:13.544Z,91.59
2019-04-30T23:58:42.021Z,92.97
